Latest Coastal Weather Observations for Yamba

IDN60701

Issued at 5:31 am EST Wednesday 25 May 2016 (issued every 10 minutes, with the page automatically refreshed every 10 minutes)

About coastal observations | Map of coastal stations | Coastal observations for NSW | Marine services | Other Formats
Station Details ID: 058012 Name: YAMBA PILOT STATION Lat: -29.43 Lon: 153.36 Height: 27.4 m
Data from the previous 72 hours. | See also: Recent months at Yamba
Date/Time
EST
Temp

°C
Wind Pressure Rain
since 9am
mm
Weather Cloud Vis
km
Sea
Height
m
Swell
Dir
 
Speed
knots
Gust
knots
hPa Trend Height
m
Period
s
Dir
25/05:30am 11.1 SW 5 8 1016.8 - 0.0 - - - - - - -
25/05:00am 11.2 WSW 6 10 1016.5 - 0.0 - - - - - - -
25/04:30am 11.1 WSW 6 8 1016.4 - 0.0 - - - - - - -
25/04:00am 11.4 W 6 8 1016.4 - 0.0 - - - - - - -
25/03:30am 11.6 W 6 8 1016.4 - 0.0 - - - - - - -
25/03:00am 11.9 W 5 7 1016.2 - 0.0 - - - - - - -
25/02:30am 12.4 WSW 4 6 1016.2 - 0.0 - - - - - - -
25/02:00am 12.4 WSW 5 6 1016.3 - 0.0 - - - - - - -
25/01:30am 12.8 SW 4 7 1016.5 - 0.0 - - - - - - -
25/01:00am 13.0 SW 5 8 1016.4 - 0.0 - - - - - - -
25/12:30am 13.3 SW 5 10 1016.4 - 0.0 - - - - - - -
25/12:00am 13.2 SW 6 10 1016.3 - 0.0 - - - - - - -
 
Date/Time
EST
Temp

°C
Wind Pressure Rain
since 9am
mm
Weather Cloud Vis
km
Sea
Height
m
Swell
Dir
 
Speed
knots
Gust
knots
hPa Trend Height
m
Period
s
Dir
24/11:30pm 12.3 WSW 6 9 1016.3 - 0.0 - - - - - - -
24/11:00pm 12.4 SSW 4 6 1016.5 - 0.0 - - - - - - -
24/10:30pm 14.0 WSW 8 10 1016.1 - 0.0 - - - - - - -
24/10:00pm 13.1 WSW 5 8 1016.3 - 0.0 - - - - - - -
24/09:30pm 14.6 W 7 9 1016.2 - 0.0 - - - - - - -
24/09:00pm 15.2 WNW 6 8 1016.1 - 0.0 - - - - - - -
24/08:30pm 15.7 WNW 6 7 1016.2 - 0.0 - - - - - - -
24/08:00pm 15.8 NW 5 6 1016.1 - 0.0 - - - - - - -
24/07:30pm 16.3 WNW 5 6 1016.0 - 0.0 - - - - - - -
24/07:00pm 17.2 NW 4 5 1015.8 - 0.0 - - - - - - -
24/06:30pm 17.0 N 3 4 1015.7 - 0.0 - - - - - - -
24/06:00pm 16.6 NNW 4 5 1015.4 - 0.0 - - - - - - -
24/05:30pm 17.7 N 3 6 1015.1 - 0.0 - - - - - - -
24/05:00pm 18.4 NNE 3 5 1015.1 - 0.0 - - - - - - -
24/04:30pm 19.6 NE 3 5 1015.1 - 0.0 - - - - - - -
24/04:00pm 20.0 E 5 7 1015.0 - 0.0 - - - - - - -
24/03:30pm 20.8 E 4 5 1015.1 - 0.0 - - - - - - -
24/03:00pm 21.1 ESE 5 8 1015.3 - 0.0 - - - - - - -
24/02:30pm 21.0 SE 8 9 1015.5 - 0.0 - - - - - - -
24/02:00pm 21.1 SE 9 11 1015.4 - 0.0 - - - - - - -
24/01:30pm 21.2 SE 10 13 1015.5 - 0.0 - - - - - - -
24/01:00pm 21.3 SE 11 13 1015.8 - 0.0 - - - - - - -
24/12:30pm 21.5 SE 12 15 1016.0 - 0.0 - - - - - - -
24/12:00pm 21.4 SE 13 18 1016.5 - 0.0 - - - - - - -
24/11:30am 21.5 SSE 11 15 1017.0 - 0.0 - - - - - - -
24/11:00am 21.6 SSE 11 17 1017.4 - 0.0 - - - - - - -
24/10:30am 21.6 SSE 9 14 1018.0 - 0.0 - - - - - - -
24/10:00am 20.5 SSW 6 9 1018.4 - 0.0 - - - - - - -
24/09:30am 19.7 SW 4 7 1018.4 - 0.0 - - - - - - -
24/09:00am 18.5 WSW 5 8 1018.5 - 0.0 - - - - - - -
24/08:30am 17.3 SW 4 7 1018.4 - 0.0 - - - - - - -
24/08:00am 16.0 SW 5 9 1018.2 - 0.0 - - - - - - -
24/07:30am 15.3 WSW 5 9 1017.9 - 0.0 - - - - - - -
24/07:00am 14.9 SW 4 6 1017.5 - 0.0 - - - - - - -
24/06:30am 14.7 SW 5 8 1017.2 - 0.0 - - - - - - -
24/06:00am 15.6 SW 5 8 1016.8 - 0.0 - - - - - - -
24/05:30am 16.1 SW 5 7 1016.4 - 0.0 - - - - - - -
24/05:00am 16.7 SW 5 8 1016.5 - 0.0 - - - - - - -
24/04:30am 17.6 SW 5 9 1016.3 - 0.0 - - - - - - -
24/04:00am 17.3 WSW 4 7 1016.2 - 0.0 - - - - - - -
24/03:30am 18.1 SW 5 8 1016.1 - 0.0 - - - - - - -
24/03:00am 17.8 S 7 10 1016.0 - 0.0 - - - - - - -
24/02:30am 18.2 SW 5 7 1015.6 - 0.0 - - - - - - -
24/02:00am 18.6 SW 4 9 1015.3 - 0.0 - - - - - - -
24/01:30am 19.5 SW 6 11 1015.1 - 0.0 - - - - - - -
24/01:00am 19.7 SW 7 10 1014.8 - 0.0 - - - - - - -
24/12:30am 20.1 SW 6 8 1014.7 - 0.0 - - - - - - -
24/12:00am 20.3 SW 6 8 1014.7 - 0.0 - - - - - - -
 
Date/Time
EST
Temp

°C
Wind Pressure Rain
since 9am
mm
Weather Cloud Vis
km
Sea
Height
m
Swell
Dir
 
Speed
knots
Gust
knots
hPa Trend Height
m
Period
s
Dir
23/11:30pm 20.1 WSW 4 7 1014.6 - 0.0 - - - - - - -
23/11:00pm 20.4 WSW 5 7 1014.8 - 0.0 - - - - - - -
23/10:30pm 20.2 WSW 7 9 1014.6 - 0.0 - - - - - - -
23/10:00pm 20.2 W 7 10 1014.5 - 0.0 - - - - - - -
23/09:30pm 19.9 WNW 5 6 1014.5 - 0.0 - - - - - - -
23/09:00pm 20.5 NW 5 7 1014.6 - 0.0 - - - - - - -
23/08:30pm 20.7 NW 5 7 1014.7 - 0.0 - - - - - - -
23/08:00pm 20.5 NNW 4 6 1014.7 - 0.0 - - - - - - -
23/07:30pm 21.3 NNW 3 5 1014.8 - 0.0 - - - - - - -
23/07:00pm 21.6 N 4 6 1014.3 - 0.0 - - - - - - -
23/06:30pm 21.3 N 5 8 1014.1 - 0.0 - - - - - - -
23/06:00pm 21.5 N 4 6 1013.9 - 0.0 - - - - - - -
23/05:30pm 21.7 N 5 8 1013.9 - 0.0 - - - - - - -
23/05:00pm 22.2 N 5 8 1013.7 - 0.0 - - - - - - -
23/04:30pm 22.9 N 4 7 1013.5 - 0.0 - - - - - - -
23/04:00pm 24.3 N 5 9 1013.5 - 0.0 - - - - - - -
23/03:30pm 26.0 NNE 5 8 1013.6 - 0.0 - - - - - - -
23/03:00pm 26.5 N 3 5 1013.7 - 0.0 - - - - - - -
23/02:30pm 27.4 N 4 5 1013.5 - 0.0 - - - - - - -
23/02:00pm 27.4 N 4 6 1014.0 - 0.0 - - - - - - -
23/01:30pm 28.0 NW 5 7 1014.5 - 0.0 - - - - - - -
23/01:00pm 27.5 NW 6 9 1014.9 - 0.0 - - - - - - -
23/12:30pm 26.7 NW 5 8 1015.1 - 0.0 - - - - - - -
23/12:00pm 25.6 NW 5 8 1015.9 - 0.0 - - - - - - -
23/11:30am 24.1 N 3 5 1016.7 - 0.0 - - - - - - -
23/11:00am 23.2 NW 4 6 1017.4 - 0.0 - - - - - - -
23/10:30am 22.2 NW 4 6 1018.2 - 0.0 - - - - - - -
23/10:00am 20.8 WNW 5 7 1018.9 - 0.0 - - - - - - -
23/09:30am 20.2 NW 4 6 1019.1 - 0.0 - - - - - - -
23/09:00am 18.6 NW 5 7 1019.3 - 0.0 - - - - - - -
23/08:30am 17.3 NW 3 4 1019.3 - 0.0 - - - - - - -
23/08:00am 16.3 WNW 3 4 1019.6 - 0.0 - - - - - - -
23/07:30am 15.3 W 5 8 1019.8 - 0.0 - - - - - - -
23/07:00am 14.5 W 6 8 1019.8 - 0.0 - - - - - - -
23/06:30am 14.3 W 4 6 1019.8 - 0.0 - - - - - - -
23/06:00am 14.3 W 5 5 1019.7 - 0.0 - - - - - - -
23/05:30am 14.9 WSW 4 5 1019.7 - 0.0 - - - - - - -
23/05:00am 15.2 W 6 7 1019.5 - 0.0 - - - - - - -
23/04:30am 15.5 WSW 5 6 1019.2 - 0.0 - - - - - - -
23/04:00am 15.4 WSW 4 5 1019.3 - 0.0 - - - - - - -
23/03:30am 15.8 WSW 4 6 1019.5 - 0.0 - - - - - - -
23/03:00am 16.2 WSW 5 7 1019.7 - 0.0 - - - - - - -
23/02:30am 16.2 WSW 6 7 1019.9 - 0.0 - - - - - - -
23/02:00am 16.1 WSW 5 7 1020.0 - 0.0 - - - - - - -
23/01:30am 16.4 WSW 6 8 1020.0 - 0.0 - - - - - - -
23/01:00am 16.5 WSW 6 7 1020.3 - 0.0 - - - - - - -
23/12:30am 16.5 SW 5 7 1020.6 - 0.0 - - - - - - -
23/12:00am 16.9 SW 6 7 1021.0 - 0.0 - - - - - - -
 
Date/Time
EST
Temp

°C
Wind Pressure Rain
since 9am
mm
Weather Cloud Vis
km
Sea
Height
m
Swell
Dir
 
Speed
knots
Gust
knots
hPa Trend Height
m
Period
s
Dir
22/11:30pm 17.4 W 7 8 1021.3 - 0.0 - - - - - - -
22/11:00pm 17.2 W 6 7 1021.4 - 0.0 - - - - - - -
22/10:30pm 17.9 W 5 6 1021.4 - 0.0 - - - - - - -
22/10:00pm 18.6 WNW 4 5 1021.6 - 0.0 - - - - - - -
22/09:30pm 20.4 NE 3 7 1021.8 - 0.0 - - - - - - -
22/09:00pm 20.8 NE 5 7 1021.9 - 0.0 - - - - - - -
22/08:30pm 20.4 N 4 7 1022.1 - 0.0 - - - - - - -
22/08:00pm 20.9 NE 4 7 1022.1 - 0.0 - - - - - - -
22/07:30pm 21.1 NE 5 9 1022.0 - 0.0 - - - - - - -
22/07:00pm 21.0 NE 5 8 1021.8 - 0.0 - - - - - - -
22/06:30pm 21.2 NE 5 8 1021.7 - 0.0 - - - - - - -
22/06:00pm 21.0 NNE 5 7 1021.6 - 0.0 - - - - - - -
22/05:30pm 21.1 NNE 5 8 1021.6 - 0.0 - - - - - - -
22/05:00pm 21.3 NE 4 7 1021.6 - 0.0 - - - - - - -
22/04:30pm 21.7 NE 5 8 1021.6 - 0.0 - - - - - - -
22/04:00pm 22.1 ENE 5 8 1021.5 - 0.0 - - - - - - -
22/03:30pm 22.5 E 5 9 1021.5 - 0.0 - - - - - - -
22/03:00pm 23.0 ENE 5 8 1021.5 - 0.0 - - - - - - -
22/02:30pm 23.2 NE 6 9 1021.6 - 0.0 - - - - - - -
22/02:00pm 23.9 NE 5 7 1021.7 - 0.0 - - - - - - -
22/01:30pm 23.5 NE 6 8 1021.8 - 0.0 - - - - - - -
22/01:00pm 23.1 ENE 5 7 1022.1 - 0.0 - - - - - - -
22/12:30pm 22.9 ENE 5 7 1022.5 - 0.0 - - - - - - -
22/12:00pm 23.4 ENE 4 5 1023.0 - 0.0 - - - - - - -
22/11:30am 23.9 NW 3 5 1023.8 - 0.0 - - - - - - -
22/11:00am 23.1 W 4 6 1024.5 - 0.0 - - - - - - -
22/10:30am 21.8 SSW 4 6 1024.8 - 0.0 - - - - - - -
22/10:00am 20.2 SW 5 7 1025.1 - 0.0 - - - - - - -
22/09:30am 20.1 SW 4 6 1025.2 - 0.0 - - - - - - -
22/09:00am 19.3 W 5 7 1025.2 - 0.0 - - - - - - -
22/08:30am 17.5 WSW 6 8 1025.3 - 0.0 - - - - - - -
22/08:00am 17.2 WSW 6 7 1025.0 - 0.0 - - - - - - -
22/07:30am 16.9 SW 4 7 1025.1 - 0.0 - - - - - - -
22/07:00am 16.6 WSW 6 7 1025.4 - 0.0 - - - - - - -
22/06:30am 16.9 WSW 6 8 1025.2 - 0.0 - - - - - - -
22/06:00am 17.6 SW 5 7 1024.9 - 0.0 - - - - - - -

Other Formats:

Comma delimited format used in spreadsheet applications
http://www.bom.gov.au/fwo/IDN60701/IDN60701.94589.axf

JavaScript Object Notation format (JSON) in row-major order
http://www.bom.gov.au/fwo/IDN60701/IDN60701.94589.json